sensor_id;sensor_type;location;lat;lon;timestamp;temperature;humidity
6724;DHT22;3399;52.530;13.304;2023-08-07T00:02:22;15.40;99.90
6724;DHT22;3399;52.530;13.304;2023-08-07T00:04:47;15.50;99.90
6724;DHT22;3399;52.530;13.304;2023-08-07T00:07:13;15.60;99.90
6724;DHT22;3399;52.530;13.304;2023-08-07T00:09:38;15.50;99.90
6724;DHT22;3399;52.530;13.304;2023-08-07T00:12:04;15.50;99.90
6724;DHT22;3399;52.530;13.304;2023-08-07T00:14:29;15.40;99.90
6724;DHT22;3399;52.530;13.304;2023-08-07T00:16:55;15.30;99.90
6724;DHT22;3399;52.530;13.304;2023-08-07T00:19:21;15.20;99.90
6724;DHT22;3399;52.530;13.304;2023-08-07T00:21:46;15.30;99.90
6724;DHT22;3399;52.530;13.304;2023-08-07T00:24:11;15.30;99.90
6724;DHT22;3399;52.530;13.304;2023-08-07T00:26:37;15.40;99.90
6724;DHT22;3399;52.530;13.304;2023-08-07T00:29:02;15.30;99.90
6724;DHT22;3399;52.530;13.304;2023-08-07T00:31:28;15.30;99.90
6724;DHT22;3399;52.530;13.304;2023-08-07T00:33:59;15.30;99.90
6724;DHT22;3399;52.530;13.304;2023-08-07T00:36:24;15.20;99.90
6724;DHT22;3399;52.530;13.304;2023-08-07T00:38:50;15.20;99.90
6724;DHT22;3399;52.530;13.304;2023-08-07T00:41:17;15.10;99.90
6724;DHT22;3399;52.530;13.304;2023-08-07T00:43:43;15.10;99.90
6724;DHT22;3399;52.530;13.304;2023-08-07T00:46:09;15.20;99.90
6724;DHT22;3399;52.530;13.304;2023-08-07T00:48:35;15.10;99.90
6724;DHT22;3399;52.530;13.304;2023-08-07T00:51:01;15.10;99.90
6724;DHT22;3399;52.530;13.304;2023-08-07T00:53:27;15.00;99.90
6724;DHT22;3399;52.530;13.304;2023-08-07T00:55:53;15.00;99.90
6724;DHT22;3399;52.530;13.304;2023-08-07T00:58:18;15.00;99.90
6724;DHT22;3399;52.530;13.304;2023-08-07T01:00:44;15.00;99.90
6724;DHT22;3399;52.530;13.304;2023-08-07T01:03:12;14.90;99.90
6724;DHT22;3399;52.530;13.304;2023-08-07T01:05:38;15.00;99.90
6724;DHT22;3399;52.530;13.304;2023-08-07T01:08:03;15.20;99.90
6724;DHT22;3399;52.530;13.304;2023-08-07T01:13:24;15.50;99.90
6724;DHT22;3399;52.530;13.304;2023-08-07T01:15:55;15.50;99.90
6724;DHT22;3399;52.530;13.304;2023-08-07T01:18:23;15.40;99.90
6724;DHT22;3399;52.530;13.304;2023-08-07T01:20:49;15.20;99.90
6724;DHT22;3399;52.530;13.304;2023-08-07T01:23:15;15.30;99.90
6724;DHT22;3399;52.530;13.304;2023-08-07T01:25:40;15.40;99.90
6724;DHT22;3399;52.530;13.304;2023-08-07T01:30:39;15.30;99.90
6724;DHT22;3399;52.530;13.304;2023-08-07T01:33:14;15.50;99.90
6724;DHT22;3399;52.530;13.304;2023-08-07T01:35:47;15.50;99.90
6724;DHT22;3399;52.530;13.304;2023-08-07T01:38:15;15.60;99.90
6724;DHT22;3399;52.530;13.304;2023-08-07T01:40:42;15.70;99.90
6724;DHT22;3399;52.530;13.304;2023-08-07T01:43:08;15.60;99.90
6724;DHT22;3399;52.530;13.304;2023-08-07T01:45:34;15.60;99.90
6724;DHT22;3399;52.530;13.304;2023-08-07T01:48:00;15.50;99.90
6724;DHT22;3399;52.530;13.304;2023-08-07T01:50:26;15.40;99.90
6724;DHT22;3399;52.530;13.304;2023-08-07T01:52:51;15.40;99.90
6724;DHT22;3399;52.530;13.304;2023-08-07T01:55:18;15.30;99.90
6724;DHT22;3399;52.530;13.304;2023-08-07T01:57:44;15.20;99.90
6724;DHT22;3399;52.530;13.304;2023-08-07T02:00:10;15.10;99.90
6724;DHT22;3399;52.530;13.304;2023-08-07T02:02:36;15.00;99.90
6724;DHT22;3399;52.530;13.304;2023-08-07T02:05:02;14.90;99.90
6724;DHT22;3399;52.530;13.304;2023-08-07T02:07:28;15.00;99.90
6724;DHT22;3399;52.530;13.304;2023-08-07T02:09:54;15.20;99.90
6724;DHT22;3399;52.530;13.304;2023-08-07T02:12:19;15.00;99.90
6724;DHT22;3399;52.530;13.304;2023-08-07T02:14:45;14.90;99.90
6724;DHT22;3399;52.530;13.304;2023-08-07T02:17:10;15.00;99.90
6724;DHT22;3399;52.530;13.304;2023-08-07T02:19:36;14.80;99.90
6724;DHT22;3399;52.530;13.304;2023-08-07T02:22:02;14.70;99.90
6724;DHT22;3399;52.530;13.304;2023-08-07T02:24:27;14.60;99.90
6724;DHT22;3399;52.530;13.304;2023-08-07T02:26:53;14.70;99.90
6724;DHT22;3399;52.530;13.304;2023-08-07T02:29:18;14.80;99.90
6724;DHT22;3399;52.530;13.304;2023-08-07T02:31:44;14.80;99.90
6724;DHT22;3399;52.530;13.304;2023-08-07T02:34:09;14.70;99.90
6724;DHT22;3399;52.530;13.304;2023-08-07T02:36:35;14.80;99.90
6724;DHT22;3399;52.530;13.304;2023-08-07T02:39:00;14.80;99.90
6724;DHT22;3399;52.530;13.304;2023-08-07T02:41:26;14.70;99.90
6724;DHT22;3399;52.530;13.304;2023-08-07T02:43:51;14.90;99.90
6724;DHT22;3399;52.530;13.304;2023-08-07T02:46:17;14.90;99.90
6724;DHT22;3399;52.530;13.304;2023-08-07T02:48:43;14.80;99.90
6724;DHT22;3399;52.530;13.304;2023-08-07T02:51:09;15.00;99.90
6724;DHT22;3399;52.530;13.304;2023-08-07T02:53:34;15.10;99.90
6724;DHT22;3399;52.530;13.304;2023-08-07T02:56:00;15.10;99.90
6724;DHT22;3399;52.530;13.304;2023-08-07T02:58:25;15.10;99.90
6724;DHT22;3399;52.530;13.304;2023-08-07T03:00:51;15.20;99.90
6724;DHT22;3399;52.530;13.304;2023-08-07T03:03:16;15.10;99.90
6724;DHT22;3399;52.530;13.304;2023-08-07T03:05:49;15.10;99.90
6724;DHT22;3399;52.530;13.304;2023-08-07T03:08:15;15.10;99.90
6724;DHT22;3399;52.530;13.304;2023-08-07T03:10:41;15.10;99.90
6724;DHT22;3399;52.530;13.304;2023-08-07T03:13:06;15.10;99.90
6724;DHT22;3399;52.530;13.304;2023-08-07T03:15:32;15.00;99.90
6724;DHT22;3399;52.530;13.304;2023-08-07T03:17:57;14.90;99.90
6724;DHT22;3399;52.530;13.304;2023-08-07T03:20:23;14.90;99.90
6724;DHT22;3399;52.530;13.304;2023-08-07T03:22:48;15.00;99.90
6724;DHT22;3399;52.530;13.304;2023-08-07T03:25:14;15.00;99.90
6724;DHT22;3399;52.530;13.304;2023-08-07T03:27:39;15.00;99.90
6724;DHT22;3399;52.530;13.304;2023-08-07T03:30:06;14.90;99.90
6724;DHT22;3399;52.530;13.304;2023-08-07T03:32:31;15.00;99.90
6724;DHT22;3399;52.530;13.304;2023-08-07T03:34:57;14.90;99.90
6724;DHT22;3399;52.530;13.304;2023-08-07T03:37:22;14.90;99.90
6724;DHT22;3399;52.530;13.304;2023-08-07T03:39:48;15.00;99.90
6724;DHT22;3399;52.530;13.304;2023-08-07T03:42:13;14.90;99.90
6724;DHT22;3399;52.530;13.304;2023-08-07T03:44:40;14.90;99.90
6724;DHT22;3399;52.530;13.304;2023-08-07T03:47:06;15.00;99.90
6724;DHT22;3399;52.530;13.304;2023-08-07T03:49:31;14.90;99.90
6724;DHT22;3399;52.530;13.304;2023-08-07T03:51:57;14.90;99.90
6724;DHT22;3399;52.530;13.304;2023-08-07T03:54:24;14.90;99.90
6724;DHT22;3399;52.530;13.304;2023-08-07T03:56:50;15.00;99.90
6724;DHT22;3399;52.530;13.304;2023-08-07T03:59:16;15.10;99.90
6724;DHT22;3399;52.530;13.304;2023-08-07T04:01:42;15.10;99.90
6724;DHT22;3399;52.530;13.304;2023-08-07T04:04:07;15.10;99.90
6724;DHT22;3399;52.530;13.304;2023-08-07T04:06:33;15.10;99.90
6724;DHT22;3399;52.530;13.304;2023-08-07T04:08:58;15.10;99.90
6724;DHT22;3399;52.530;13.304;2023-08-07T04:11:24;15.00;99.90
6724;DHT22;3399;52.530;13.304;2023-08-07T04:13:50;14.90;99.90
6724;DHT22;3399;52.530;13.304;2023-08-07T04:16:15;14.90;99.90
6724;DHT22;3399;52.530;13.304;2023-08-07T04:18:42;15.00;99.90
6724;DHT22;3399;52.530;13.304;2023-08-07T04:21:07;15.00;99.90
6724;DHT22;3399;52.530;13.304;2023-08-07T04:23:33;15.10;99.90
6724;DHT22;3399;52.530;13.304;2023-08-07T04:25:59;15.00;99.90
6724;DHT22;3399;52.530;13.304;2023-08-07T04:28:25;14.90;99.90
6724;DHT22;3399;52.530;13.304;2023-08-07T04:30:51;14.90;99.90
6724;DHT22;3399;52.530;13.304;2023-08-07T04:33:17;14.90;99.90
6724;DHT22;3399;52.530;13.304;2023-08-07T04:35:43;14.90;99.90
6724;DHT22;3399;52.530;13.304;2023-08-07T04:38:09;15.00;99.90
6724;DHT22;3399;52.530;13.304;2023-08-07T04:40:34;15.00;99.90
6724;DHT22;3399;52.530;13.304;2023-08-07T04:43:00;15.00;99.90
6724;DHT22;3399;52.530;13.304;2023-08-07T04:45:26;15.00;99.90
6724;DHT22;3399;52.530;13.304;2023-08-07T04:47:51;15.00;99.90
6724;DHT22;3399;52.530;13.304;2023-08-07T04:50:17;15.00;99.90
6724;DHT22;3399;52.530;13.304;2023-08-07T04:52:43;15.10;99.90
6724;DHT22;3399;52.530;13.304;2023-08-07T04:55:08;15.10;99.90
6724;DHT22;3399;52.530;13.304;2023-08-07T04:57:34;15.00;99.90
6724;DHT22;3399;52.530;13.304;2023-08-07T04:59:59;14.90;99.90
6724;DHT22;3399;52.530;13.304;2023-08-07T05:02:25;15.00;99.90
6724;DHT22;3399;52.530;13.304;2023-08-07T05:04:50;15.00;99.90
6724;DHT22;3399;52.530;13.304;2023-08-07T05:07:16;15.00;99.90
6724;DHT22;3399;52.530;13.304;2023-08-07T05:09:41;14.90;99.90
6724;DHT22;3399;52.530;13.304;2023-08-07T05:12:07;15.00;99.90
6724;DHT22;3399;52.530;13.304;2023-08-07T05:14:33;15.10;99.90
6724;DHT22;3399;52.530;13.304;2023-08-07T05:16:58;14.90;99.90
6724;DHT22;3399;52.530;13.304;2023-08-07T05:19:25;14.90;99.90
6724;DHT22;3399;52.530;13.304;2023-08-07T05:21:50;15.00;99.90
6724;DHT22;3399;52.530;13.304;2023-08-07T05:24:17;15.10;99.90
6724;DHT22;3399;52.530;13.304;2023-08-07T05:26:42;15.00;99.90
6724;DHT22;3399;52.530;13.304;2023-08-07T05:29:08;15.00;99.90
6724;DHT22;3399;52.530;13.304;2023-08-07T05:31:33;14.90;99.90
6724;DHT22;3399;52.530;13.304;2023-08-07T05:33:59;15.00;99.90
6724;DHT22;3399;52.530;13.304;2023-08-07T05:36:25;14.80;99.90
6724;DHT22;3399;52.530;13.304;2023-08-07T05:38:51;14.80;99.90
6724;DHT22;3399;52.530;13.304;2023-08-07T05:41:16;14.80;99.90
6724;DHT22;3399;52.530;13.304;2023-08-07T05:43:42;14.80;99.90
6724;DHT22;3399;52.530;13.304;2023-08-07T05:46:07;14.90;99.90
6724;DHT22;3399;52.530;13.304;2023-08-07T05:48:33;14.90;99.90
6724;DHT22;3399;52.530;13.304;2023-08-07T05:50:58;14.90;99.90
6724;DHT22;3399;52.530;13.304;2023-08-07T05:53:24;15.00;99.90
6724;DHT22;3399;52.530;13.304;2023-08-07T05:55:49;14.90;99.90
6724;DHT22;3399;52.530;13.304;2023-08-07T05:58:15;15.00;99.90
6724;DHT22;3399;52.530;13.304;2023-08-07T06:00:40;15.20;99.90
6724;DHT22;3399;52.530;13.304;2023-08-07T06:03:06;15.20;99.90
6724;DHT22;3399;52.530;13.304;2023-08-07T06:05:32;15.20;99.90
6724;DHT22;3399;52.530;13.304;2023-08-07T06:07:57;15.20;99.90
6724;DHT22;3399;52.530;13.304;2023-08-07T06:10:23;15.30;99.90
6724;DHT22;3399;52.530;13.304;2023-08-07T06:12:48;15.30;99.90
6724;DHT22;3399;52.530;13.304;2023-08-07T06:15:14;15.30;99.90
6724;DHT22;3399;52.530;13.304;2023-08-07T06:17:39;15.40;99.90
6724;DHT22;3399;52.530;13.304;2023-08-07T06:20:07;15.40;99.90
6724;DHT22;3399;52.530;13.304;2023-08-07T06:22:34;15.40;99.90
6724;DHT22;3399;52.530;13.304;2023-08-07T06:25:00;15.50;99.90
6724;DHT22;3399;52.530;13.304;2023-08-07T06:27:25;15.60;99.90
6724;DHT22;3399;52.530;13.304;2023-08-07T06:29:51;15.70;99.90
6724;DHT22;3399;52.530;13.304;2023-08-07T06:32:16;15.70;99.90
6724;DHT22;3399;52.530;13.304;2023-08-07T06:34:43;15.70;99.90
6724;DHT22;3399;52.530;13.304;2023-08-07T06:37:09;15.80;99.90
6724;DHT22;3399;52.530;13.304;2023-08-07T06:39:34;15.90;99.90
6724;DHT22;3399;52.530;13.304;2023-08-07T06:42:00;15.90;99.90
6724;DHT22;3399;52.530;13.304;2023-08-07T06:44:26;15.90;99.90
6724;DHT22;3399;52.530;13.304;2023-08-07T06:46:51;16.00;99.90
6724;DHT22;3399;52.530;13.304;2023-08-07T06:49:17;16.20;99.90
6724;DHT22;3399;52.530;13.304;2023-08-07T06:51:43;16.30;99.90
6724;DHT22;3399;52.530;13.304;2023-08-07T06:54:08;16.40;99.90
6724;DHT22;3399;52.530;13.304;2023-08-07T06:56:34;16.50;99.90
6724;DHT22;3399;52.530;13.304;2023-08-07T06:58:59;16.60;99.90
6724;DHT22;3399;52.530;13.304;2023-08-07T07:01:25;16.70;99.90
6724;DHT22;3399;52.530;13.304;2023-08-07T07:03:51;16.70;99.90
6724;DHT22;3399;52.530;13.304;2023-08-07T07:06:18;16.90;99.90
6724;DHT22;3399;52.530;13.304;2023-08-07T07:08:44;17.00;99.90
6724;DHT22;3399;52.530;13.304;2023-08-07T07:11:09;17.00;99.90
6724;DHT22;3399;52.530;13.304;2023-08-07T07:13:35;17.10;99.90
6724;DHT22;3399;52.530;13.304;2023-08-07T07:16:00;17.20;99.90
6724;DHT22;3399;52.530;13.304;2023-08-07T07:20:59;17.30;99.90
6724;DHT22;3399;52.530;13.304;2023-08-07T07:23:25;17.30;99.90
6724;DHT22;3399;52.530;13.304;2023-08-07T07:25:51;17.20;99.90
6724;DHT22;3399;52.530;13.304;2023-08-07T07:28:16;17.20;99.90
6724;DHT22;3399;52.530;13.304;2023-08-07T07:30:42;17.30;99.90
6724;DHT22;3399;52.530;13.304;2023-08-07T07:33:07;17.30;99.90
6724;DHT22;3399;52.530;13.304;2023-08-07T07:35:37;17.40;99.90
6724;DHT22;3399;52.530;13.304;2023-08-07T07:38:03;17.40;99.90
6724;DHT22;3399;52.530;13.304;2023-08-07T07:40:29;17.40;99.90
6724;DHT22;3399;52.530;13.304;2023-08-07T07:42:54;17.40;99.90
6724;DHT22;3399;52.530;13.304;2023-08-07T07:45:20;17.50;99.90
6724;DHT22;3399;52.530;13.304;2023-08-07T07:47:45;17.50;99.90
6724;DHT22;3399;52.530;13.304;2023-08-07T07:50:11;17.50;99.90
6724;DHT22;3399;52.530;13.304;2023-08-07T07:52:38;17.50;99.90
6724;DHT22;3399;52.530;13.304;2023-08-07T07:55:03;17.70;99.90
6724;DHT22;3399;52.530;13.304;2023-08-07T07:57:30;17.70;99.90
6724;DHT22;3399;52.530;13.304;2023-08-07T07:59:56;17.70;99.90
6724;DHT22;3399;52.530;13.304;2023-08-07T08:02:22;17.70;99.90
6724;DHT22;3399;52.530;13.304;2023-08-07T08:04:50;17.70;99.90
6724;DHT22;3399;52.530;13.304;2023-08-07T08:07:16;17.80;99.90
6724;DHT22;3399;52.530;13.304;2023-08-07T08:09:41;17.70;99.90
6724;DHT22;3399;52.530;13.304;2023-08-07T08:12:07;17.80;99.90
6724;DHT22;3399;52.530;13.304;2023-08-07T08:14:33;17.80;99.90
6724;DHT22;3399;52.530;13.304;2023-08-07T08:16:58;17.80;99.90
6724;DHT22;3399;52.530;13.304;2023-08-07T08:19:24;17.90;99.90
6724;DHT22;3399;52.530;13.304;2023-08-07T08:21:49;17.90;99.90
6724;DHT22;3399;52.530;13.304;2023-08-07T08:24:15;17.90;99.90
6724;DHT22;3399;52.530;13.304;2023-08-07T08:26:40;18.00;99.90
6724;DHT22;3399;52.530;13.304;2023-08-07T08:29:06;17.90;99.90
6724;DHT22;3399;52.530;13.304;2023-08-07T08:31:36;18.00;99.90
6724;DHT22;3399;52.530;13.304;2023-08-07T08:34:01;18.00;99.90
6724;DHT22;3399;52.530;13.304;2023-08-07T08:36:27;17.90;99.90
6724;DHT22;3399;52.530;13.304;2023-08-07T08:38:52;17.90;99.90
6724;DHT22;3399;52.530;13.304;2023-08-07T08:41:18;17.90;99.90
6724;DHT22;3399;52.530;13.304;2023-08-07T08:43:46;17.90;99.90
6724;DHT22;3399;52.530;13.304;2023-08-07T08:46:15;18.00;99.90
6724;DHT22;3399;52.530;13.304;2023-08-07T08:48:45;18.10;99.90
6724;DHT22;3399;52.530;13.304;2023-08-07T08:51:12;18.20;99.90
6724;DHT22;3399;52.530;13.304;2023-08-07T08:53:38;18.30;99.90
6724;DHT22;3399;52.530;13.304;2023-08-07T08:56:05;18.30;99.90
6724;DHT22;3399;52.530;13.304;2023-08-07T08:58:31;18.30;99.90
6724;DHT22;3399;52.530;13.304;2023-08-07T09:00:57;18.40;99.90
6724;DHT22;3399;52.530;13.304;2023-08-07T09:03:24;18.40;99.90
6724;DHT22;3399;52.530;13.304;2023-08-07T09:05:53;18.50;99.90
6724;DHT22;3399;52.530;13.304;2023-08-07T09:08:20;18.60;99.90
6724;DHT22;3399;52.530;13.304;2023-08-07T09:10:46;18.50;99.90
6724;DHT22;3399;52.530;13.304;2023-08-07T09:13:14;18.50;99.90
6724;DHT22;3399;52.530;13.304;2023-08-07T09:15:41;18.00;99.90
6724;DHT22;3399;52.530;13.304;2023-08-07T09:18:13;17.80;99.90
6724;DHT22;3399;52.530;13.304;2023-08-07T09:20:38;17.70;99.90
6724;DHT22;3399;52.530;13.304;2023-08-07T09:23:05;17.80;99.90
6724;DHT22;3399;52.530;13.304;2023-08-07T09:25:31;17.90;99.90
6724;DHT22;3399;52.530;13.304;2023-08-07T09:27:58;18.10;99.90
6724;DHT22;3399;52.530;13.304;2023-08-07T09:30:27;18.10;99.90
6724;DHT22;3399;52.530;13.304;2023-08-07T09:32:55;18.20;99.90
6724;DHT22;3399;52.530;13.304;2023-08-07T09:35:21;18.30;99.90
6724;DHT22;3399;52.530;13.304;2023-08-07T09:37:47;18.40;99.90
6724;DHT22;3399;52.530;13.304;2023-08-07T09:40:12;18.40;99.90
6724;DHT22;3399;52.530;13.304;2023-08-07T09:42:40;18.40;99.90
6724;DHT22;3399;52.530;13.304;2023-08-07T09:45:26;18.50;99.90
6724;DHT22;3399;52.530;13.304;2023-08-07T09:48:02;18.50;99.90
6724;DHT22;3399;52.530;13.304;2023-08-07T09:50:29;18.50;99.90
6724;DHT22;3399;52.530;13.304;2023-08-07T09:52:55;18.60;99.90
6724;DHT22;3399;52.530;13.304;2023-08-07T09:55:22;18.60;99.90
6724;DHT22;3399;52.530;13.304;2023-08-07T09:57:48;18.50;99.90
6724;DHT22;3399;52.530;13.304;2023-08-07T10:00:14;18.50;99.90
6724;DHT22;3399;52.530;13.304;2023-08-07T10:02:41;18.50;99.90
6724;DHT22;3399;52.530;13.304;2023-08-07T10:05:10;18.60;99.90
6724;DHT22;3399;52.530;13.304;2023-08-07T10:07:37;18.60;99.90
6724;DHT22;3399;52.530;13.304;2023-08-07T10:10:03;18.70;99.90
6724;DHT22;3399;52.530;13.304;2023-08-07T10:12:29;18.40;99.90
6724;DHT22;3399;52.530;13.304;2023-08-07T10:14:55;18.50;99.90
6724;DHT22;3399;52.530;13.304;2023-08-07T10:17:21;18.50;99.90
6724;DHT22;3399;52.530;13.304;2023-08-07T10:19:48;18.40;99.90
6724;DHT22;3399;52.530;13.304;2023-08-07T10:22:15;18.40;99.90
6724;DHT22;3399;52.530;13.304;2023-08-07T10:24:42;18.50;99.90
6724;DHT22;3399;52.530;13.304;2023-08-07T10:27:10;18.60;99.90
6724;DHT22;3399;52.530;13.304;2023-08-07T10:29:37;18.60;99.90
6724;DHT22;3399;52.530;13.304;2023-08-07T10:32:05;18.70;99.90
6724;DHT22;3399;52.530;13.304;2023-08-07T10:34:37;18.70;99.90
6724;DHT22;3399;52.530;13.304;2023-08-07T10:37:06;18.60;99.90
6724;DHT22;3399;52.530;13.304;2023-08-07T10:39:31;18.70;99.90
6724;DHT22;3399;52.530;13.304;2023-08-07T10:41:58;18.80;99.90
6724;DHT22;3399;52.530;13.304;2023-08-07T10:44:30;18.70;99.90
6724;DHT22;3399;52.530;13.304;2023-08-07T10:46:58;18.90;99.90
6724;DHT22;3399;52.530;13.304;2023-08-07T10:49:37;19.10;99.90
6724;DHT22;3399;52.530;13.304;2023-08-07T10:52:14;18.60;99.90
6724;DHT22;3399;52.530;13.304;2023-08-07T10:54:46;18.60;99.90
6724;DHT22;3399;52.530;13.304;2023-08-07T10:57:14;18.40;99.90
6724;DHT22;3399;52.530;13.304;2023-08-07T10:59:50;18.50;99.90
6724;DHT22;3399;52.530;13.304;2023-08-07T11:02:24;18.60;99.90
6724;DHT22;3399;52.530;13.304;2023-08-07T11:04:52;18.70;99.90
6724;DHT22;3399;52.530;13.304;2023-08-07T11:07:26;18.30;99.90
6724;DHT22;3399;52.530;13.304;2023-08-07T11:09:51;17.60;99.90
6724;DHT22;3399;52.530;13.304;2023-08-07T11:12:17;16.70;99.90
6724;DHT22;3399;52.530;13.304;2023-08-07T11:14:42;16.40;99.90
6724;DHT22;3399;52.530;13.304;2023-08-07T11:17:08;16.40;99.90
6724;DHT22;3399;52.530;13.304;2023-08-07T11:19:35;16.30;99.90
6724;DHT22;3399;52.530;13.304;2023-08-07T11:22:01;16.40;99.90
6724;DHT22;3399;52.530;13.304;2023-08-07T11:24:27;16.30;99.90
6724;DHT22;3399;52.530;13.304;2023-08-07T11:26:53;16.40;99.90
6724;DHT22;3399;52.530;13.304;2023-08-07T11:29:21;16.30;99.90
6724;DHT22;3399;52.530;13.304;2023-08-07T11:31:48;16.40;99.90
6724;DHT22;3399;52.530;13.304;2023-08-07T11:34:13;16.40;99.90
6724;DHT22;3399;52.530;13.304;2023-08-07T11:36:43;16.40;99.90
6724;DHT22;3399;52.530;13.304;2023-08-07T11:39:08;16.30;99.90
6724;DHT22;3399;52.530;13.304;2023-08-07T11:41:34;16.30;99.90
6724;DHT22;3399;52.530;13.304;2023-08-07T11:43:59;16.50;99.90
6724;DHT22;3399;52.530;13.304;2023-08-07T11:46:26;16.70;99.90
6724;DHT22;3399;52.530;13.304;2023-08-07T11:48:52;16.90;99.90
6724;DHT22;3399;52.530;13.304;2023-08-07T11:51:20;17.10;99.90
6724;DHT22;3399;52.530;13.304;2023-08-07T11:53:45;17.40;99.90
6724;DHT22;3399;52.530;13.304;2023-08-07T11:56:12;17.70;99.90
6724;DHT22;3399;52.530;13.304;2023-08-07T11:58:43;17.90;99.90
6724;DHT22;3399;52.530;13.304;2023-08-07T12:01:17;18.20;99.90
6724;DHT22;3399;52.530;13.304;2023-08-07T12:03:55;18.50;99.90
6724;DHT22;3399;52.530;13.304;2023-08-07T12:06:21;18.50;99.90
6724;DHT22;3399;52.530;13.304;2023-08-07T12:08:49;18.50;99.90
6724;DHT22;3399;52.530;13.304;2023-08-07T12:11:16;18.60;99.90
6724;DHT22;3399;52.530;13.304;2023-08-07T12:13:43;18.50;99.90
6724;DHT22;3399;52.530;13.304;2023-08-07T12:16:10;18.40;99.90
6724;DHT22;3399;52.530;13.304;2023-08-07T12:18:47;18.40;99.90
6724;DHT22;3399;52.530;13.304;2023-08-07T12:21:21;18.50;99.90
6724;DHT22;3399;52.530;13.304;2023-08-07T12:23:49;18.60;99.90
6724;DHT22;3399;52.530;13.304;2023-08-07T12:26:15;18.80;99.90
6724;DHT22;3399;52.530;13.304;2023-08-07T12:28:41;18.80;99.90
6724;DHT22;3399;52.530;13.304;2023-08-07T12:31:06;18.90;99.90
6724;DHT22;3399;52.530;13.304;2023-08-07T12:33:32;18.70;99.90
6724;DHT22;3399;52.530;13.304;2023-08-07T12:35:58;18.70;99.90
6724;DHT22;3399;52.530;13.304;2023-08-07T12:38:24;18.50;99.90
6724;DHT22;3399;52.530;13.304;2023-08-07T12:40:50;18.40;99.90
6724;DHT22;3399;52.530;13.304;2023-08-07T12:43:16;18.40;99.90
6724;DHT22;3399;52.530;13.304;2023-08-07T12:45:41;18.30;99.90
6724;DHT22;3399;52.530;13.304;2023-08-07T12:48:07;18.30;99.90
6724;DHT22;3399;52.530;13.304;2023-08-07T12:50:33;18.50;99.90
6724;DHT22;3399;52.530;13.304;2023-08-07T12:52:59;18.50;99.90
6724;DHT22;3399;52.530;13.304;2023-08-07T12:55:25;18.40;99.90
6724;DHT22;3399;52.530;13.304;2023-08-07T12:57:52;18.40;99.90
6724;DHT22;3399;52.530;13.304;2023-08-07T13:00:18;18.50;99.90
6724;DHT22;3399;52.530;13.304;2023-08-07T13:02:45;18.50;99.90
6724;DHT22;3399;52.530;13.304;2023-08-07T13:05:11;18.60;99.90
6724;DHT22;3399;52.530;13.304;2023-08-07T13:07:41;19.10;99.90
6724;DHT22;3399;52.530;13.304;2023-08-07T13:10:08;19.50;99.90
6724;DHT22;3399;52.530;13.304;2023-08-07T13:12:36;19.60;99.90
6724;DHT22;3399;52.530;13.304;2023-08-07T13:15:02;19.50;99.90
6724;DHT22;3399;52.530;13.304;2023-08-07T13:17:28;19.60;99.90
6724;DHT22;3399;52.530;13.304;2023-08-07T13:19:53;19.50;99.90
6724;DHT22;3399;52.530;13.304;2023-08-07T13:22:19;19.60;99.90
6724;DHT22;3399;52.530;13.304;2023-08-07T13:24:44;19.80;99.90
6724;DHT22;3399;52.530;13.304;2023-08-07T13:27:09;19.80;99.90
6724;DHT22;3399;52.530;13.304;2023-08-07T13:29:35;19.90;99.90
6724;DHT22;3399;52.530;13.304;2023-08-07T13:32:01;20.00;99.90
6724;DHT22;3399;52.530;13.304;2023-08-07T13:34:28;20.00;99.90
6724;DHT22;3399;52.530;13.304;2023-08-07T13:36:54;20.00;99.90
6724;DHT22;3399;52.530;13.304;2023-08-07T13:39:20;19.80;99.90
6724;DHT22;3399;52.530;13.304;2023-08-07T13:41:46;20.00;99.90
6724;DHT22;3399;52.530;13.304;2023-08-07T13:44:11;20.20;99.90
6724;DHT22;3399;52.530;13.304;2023-08-07T13:46:37;20.40;99.90
6724;DHT22;3399;52.530;13.304;2023-08-07T13:49:02;20.60;99.70
6724;DHT22;3399;52.530;13.304;2023-08-07T13:51:29;20.50;99.30
6724;DHT22;3399;52.530;13.304;2023-08-07T13:53:54;20.20;99.50
6724;DHT22;3399;52.530;13.304;2023-08-07T13:56:19;20.10;99.50
6724;DHT22;3399;52.530;13.304;2023-08-07T13:58:46;20.10;99.60
6724;DHT22;3399;52.530;13.304;2023-08-07T14:01:11;19.90;99.90
6724;DHT22;3399;52.530;13.304;2023-08-07T14:03:37;19.80;99.90
6724;DHT22;3399;52.530;13.304;2023-08-07T14:06:02;19.80;99.90
6724;DHT22;3399;52.530;13.304;2023-08-07T14:08:28;19.70;99.90
6724;DHT22;3399;52.530;13.304;2023-08-07T14:10:53;19.60;99.90
6724;DHT22;3399;52.530;13.304;2023-08-07T14:13:20;19.60;99.80
6724;DHT22;3399;52.530;13.304;2023-08-07T14:15:45;19.60;99.90
6724;DHT22;3399;52.530;13.304;2023-08-07T14:18:11;19.50;99.90
6724;DHT22;3399;52.530;13.304;2023-08-07T14:20:40;19.50;99.90
6724;DHT22;3399;52.530;13.304;2023-08-07T14:23:05;19.40;99.70
6724;DHT22;3399;52.530;13.304;2023-08-07T14:25:31;19.30;99.90
6724;DHT22;3399;52.530;13.304;2023-08-07T14:27:56;19.40;98.90
6724;DHT22;3399;52.530;13.304;2023-08-07T14:30:22;19.40;98.20
6724;DHT22;3399;52.530;13.304;2023-08-07T14:32:47;19.40;98.50
6724;DHT22;3399;52.530;13.304;2023-08-07T14:35:13;19.50;98.30
6724;DHT22;3399;52.530;13.304;2023-08-07T14:37:42;19.60;98.20
6724;DHT22;3399;52.530;13.304;2023-08-07T14:40:09;19.70;97.30
6724;DHT22;3399;52.530;13.304;2023-08-07T14:42:34;19.90;97.30
6724;DHT22;3399;52.530;13.304;2023-08-07T14:45:00;20.10;97.10
6724;DHT22;3399;52.530;13.304;2023-08-07T14:47:26;20.10;96.80
6724;DHT22;3399;52.530;13.304;2023-08-07T14:49:52;20.00;97.20
6724;DHT22;3399;52.530;13.304;2023-08-07T14:52:18;19.70;97.10
6724;DHT22;3399;52.530;13.304;2023-08-07T14:54:43;19.50;96.80
6724;DHT22;3399;52.530;13.304;2023-08-07T14:57:09;19.30;97.30
6724;DHT22;3399;52.530;13.304;2023-08-07T14:59:35;19.20;98.10
6724;DHT22;3399;52.530;13.304;2023-08-07T15:02:00;19.20;98.20
6724;DHT22;3399;52.530;13.304;2023-08-07T15:04:26;19.20;98.00
6724;DHT22;3399;52.530;13.304;2023-08-07T15:06:52;19.20;97.90
6724;DHT22;3399;52.530;13.304;2023-08-07T15:09:18;19.40;97.90
6724;DHT22;3399;52.530;13.304;2023-08-07T15:11:45;19.30;98.20
6724;DHT22;3399;52.530;13.304;2023-08-07T15:14:11;19.40;97.60
6724;DHT22;3399;52.530;13.304;2023-08-07T15:16:36;19.40;98.30
6724;DHT22;3399;52.530;13.304;2023-08-07T15:19:02;19.70;97.70
6724;DHT22;3399;52.530;13.304;2023-08-07T15:21:29;20.00;97.10
6724;DHT22;3399;52.530;13.304;2023-08-07T15:23:55;20.00;97.00
6724;DHT22;3399;52.530;13.304;2023-08-07T15:26:20;19.80;97.40
6724;DHT22;3399;52.530;13.304;2023-08-07T15:28:46;19.40;97.20
6724;DHT22;3399;52.530;13.304;2023-08-07T15:31:11;19.50;98.20
6724;DHT22;3399;52.530;13.304;2023-08-07T15:33:37;19.70;98.10
6724;DHT22;3399;52.530;13.304;2023-08-07T15:36:03;20.50;97.00
6724;DHT22;3399;52.530;13.304;2023-08-07T15:38:28;21.00;96.70
6724;DHT22;3399;52.530;13.304;2023-08-07T15:40:54;20.90;95.30
6724;DHT22;3399;52.530;13.304;2023-08-07T15:43:21;20.40;95.40
6724;DHT22;3399;52.530;13.304;2023-08-07T15:45:50;20.20;96.10
6724;DHT22;3399;52.530;13.304;2023-08-07T15:48:16;20.30;96.10